sensor_id;sensor_type;location;lat;lon;timestamp;P1;durP1;ratioP1;P2;durP2;ratioP2
15398;SDS011;7797;51.428;6.756;2022-08-19T00:01:29;5.10;;;4.68;;
15398;SDS011;7797;51.428;6.756;2022-08-19T00:04:00;5.05;;;4.65;;
15398;SDS011;7797;51.428;6.756;2022-08-19T00:06:29;6.38;;;4.65;;
15398;SDS011;7797;51.428;6.756;2022-08-19T00:08:56;6.03;;;5.00;;
15398;SDS011;7797;51.428;6.756;2022-08-19T00:11:24;5.38;;;4.88;;
15398;SDS011;7797;51.428;6.756;2022-08-19T00:13:52;8.25;;;5.53;;
15398;SDS011;7797;51.428;6.756;2022-08-19T00:16:21;6.20;;;4.88;;
15398;SDS011;7797;51.428;6.756;2022-08-19T00:18:52;5.25;;;4.75;;
15398;SDS011;7797;51.428;6.756;2022-08-19T00:21:19;5.63;;;5.18;;
15398;SDS011;7797;51.428;6.756;2022-08-19T00:23:46;5.40;;;5.03;;
15398;SDS011;7797;51.428;6.756;2022-08-19T00:26:13;6.57;;;5.40;;
15398;SDS011;7797;51.428;6.756;2022-08-19T00:28:40;5.55;;;5.03;;
15398;SDS011;7797;51.428;6.756;2022-08-19T00:31:07;5.85;;;5.15;;
15398;SDS011;7797;51.428;6.756;2022-08-19T00:33:35;6.43;;;4.85;;
15398;SDS011;7797;51.428;6.756;2022-08-19T00:36:03;4.93;;;4.63;;
15398;SDS011;7797;51.428;6.756;2022-08-19T00:38:33;5.57;;;5.07;;
15398;SDS011;7797;51.428;6.756;2022-08-19T00:41:04;5.68;;;5.05;;
15398;SDS011;7797;51.428;6.756;2022-08-19T00:43:32;5.82;;;5.32;;
15398;SDS011;7797;51.428;6.756;2022-08-19T00:45:59;5.90;;;5.40;;
15398;SDS011;7797;51.428;6.756;2022-08-19T00:48:26;5.70;;;5.20;;
15398;SDS011;7797;51.428;6.756;2022-08-19T00:50:52;5.85;;;5.15;;
15398;SDS011;7797;51.428;6.756;2022-08-19T00:53:21;5.90;;;5.30;;
15398;SDS011;7797;51.428;6.756;2022-08-19T00:55:50;6.15;;;5.60;;
15398;SDS011;7797;51.428;6.756;2022-08-19T00:58:19;5.85;;;5.35;;
15398;SDS011;7797;51.428;6.756;2022-08-19T01:00:46;6.40;;;5.38;;
15398;SDS011;7797;51.428;6.756;2022-08-19T01:03:15;6.60;;;5.40;;
15398;SDS011;7797;51.428;6.756;2022-08-19T01:05:44;6.53;;;5.47;;
15398;SDS011;7797;51.428;6.756;2022-08-19T01:08:14;5.80;;;5.22;;
15398;SDS011;7797;51.428;6.756;2022-08-19T01:10:43;6.25;;;5.65;;
15398;SDS011;7797;51.428;6.756;2022-08-19T01:13:17;5.75;;;5.20;;
15398;SDS011;7797;51.428;6.756;2022-08-19T01:15:47;5.70;;;5.20;;
15398;SDS011;7797;51.428;6.756;2022-08-19T01:18:16;6.22;;;5.53;;
15398;SDS011;7797;51.428;6.756;2022-08-19T01:20:44;5.60;;;5.10;;
15398;SDS011;7797;51.428;6.756;2022-08-19T01:23:11;6.40;;;4.80;;
15398;SDS011;7797;51.428;6.756;2022-08-19T01:25:41;6.18;;;5.57;;
15398;SDS011;7797;51.428;6.756;2022-08-19T01:28:15;6.13;;;5.53;;
15398;SDS011;7797;51.428;6.756;2022-08-19T01:31:09;6.03;;;5.45;;
15398;SDS011;7797;51.428;6.756;2022-08-19T01:33:53;6.07;;;5.45;;
15398;SDS011;7797;51.428;6.756;2022-08-19T01:36:26;5.97;;;5.20;;
15398;SDS011;7797;51.428;6.756;2022-08-19T01:39:07;6.15;;;5.50;;
15398;SDS011;7797;51.428;6.756;2022-08-19T01:41:38;6.70;;;5.63;;
15398;SDS011;7797;51.428;6.756;2022-08-19T01:44:05;6.60;;;5.90;;
15398;SDS011;7797;51.428;6.756;2022-08-19T01:46:44;6.40;;;5.80;;
15398;SDS011;7797;51.428;6.756;2022-08-19T01:49:12;6.10;;;5.57;;
15398;SDS011;7797;51.428;6.756;2022-08-19T01:51:38;6.60;;;5.72;;
15398;SDS011;7797;51.428;6.756;2022-08-19T01:54:06;6.30;;;5.80;;
15398;SDS011;7797;51.428;6.756;2022-08-19T01:56:36;6.00;;;5.47;;
15398;SDS011;7797;51.428;6.756;2022-08-19T01:59:06;8.03;;;5.50;;
15398;SDS011;7797;51.428;6.756;2022-08-19T02:01:36;6.73;;;5.90;;
15398;SDS011;7797;51.428;6.756;2022-08-19T02:04:03;6.33;;;5.77;;
15398;SDS011;7797;51.428;6.756;2022-08-19T02:06:31;6.17;;;5.60;;
15398;SDS011;7797;51.428;6.756;2022-08-19T02:08:59;6.20;;;5.70;;
15398;SDS011;7797;51.428;6.756;2022-08-19T02:11:33;6.35;;;5.75;;
15398;SDS011;7797;51.428;6.756;2022-08-19T02:14:02;6.75;;;6.10;;
15398;SDS011;7797;51.428;6.756;2022-08-19T02:16:32;6.22;;;5.72;;
15398;SDS011;7797;51.428;6.756;2022-08-19T02:18:59;6.63;;;6.03;;
15398;SDS011;7797;51.428;6.756;2022-08-19T02:21:29;6.00;;;5.50;;
15398;SDS011;7797;51.428;6.756;2022-08-19T02:23:56;6.30;;;5.70;;
15398;SDS011;7797;51.428;6.756;2022-08-19T02:26:23;6.35;;;5.72;;
15398;SDS011;7797;51.428;6.756;2022-08-19T02:28:52;6.18;;;5.72;;
15398;SDS011;7797;51.428;6.756;2022-08-19T02:31:22;6.13;;;5.60;;
15398;SDS011;7797;51.428;6.756;2022-08-19T02:33:51;7.50;;;6.33;;
15398;SDS011;7797;51.428;6.756;2022-08-19T02:36:22;6.73;;;6.03;;
15398;SDS011;7797;51.428;6.756;2022-08-19T02:38:50;7.13;;;6.33;;
15398;SDS011;7797;51.428;6.756;2022-08-19T02:41:31;7.72;;;6.57;;
15398;SDS011;7797;51.428;6.756;2022-08-19T02:43:59;7.63;;;6.90;;
15398;SDS011;7797;51.428;6.756;2022-08-19T02:46:47;7.13;;;6.50;;
15398;SDS011;7797;51.428;6.756;2022-08-19T02:49:17;7.63;;;6.93;;
15398;SDS011;7797;51.428;6.756;2022-08-19T02:51:45;8.17;;;7.37;;
15398;SDS011;7797;51.428;6.756;2022-08-19T02:54:12;8.20;;;7.60;;
15398;SDS011;7797;51.428;6.756;2022-08-19T02:56:41;8.10;;;7.40;;
15398;SDS011;7797;51.428;6.756;2022-08-19T02:59:09;8.33;;;7.50;;
15398;SDS011;7797;51.428;6.756;2022-08-19T03:01:39;8.93;;;8.03;;
15398;SDS011;7797;51.428;6.756;2022-08-19T03:04:09;8.60;;;7.80;;
15398;SDS011;7797;51.428;6.756;2022-08-19T03:06:39;9.47;;;8.50;;
15398;SDS011;7797;51.428;6.756;2022-08-19T03:09:07;8.60;;;7.93;;
15398;SDS011;7797;51.428;6.756;2022-08-19T03:11:34;8.00;;;7.20;;
15398;SDS011;7797;51.428;6.756;2022-08-19T03:14:02;7.67;;;7.07;;
15398;SDS011;7797;51.428;6.756;2022-08-19T03:16:31;8.03;;;7.33;;
15398;SDS011;7797;51.428;6.756;2022-08-19T03:18:59;11.20;;;10.10;;
15398;SDS011;7797;51.428;6.756;2022-08-19T03:21:28;12.63;;;10.43;;
15398;SDS011;7797;51.428;6.756;2022-08-19T03:23:57;16.60;;;15.00;;
15398;SDS011;7797;51.428;6.756;2022-08-19T03:26:26;15.27;;;13.83;;
15398;SDS011;7797;51.428;6.756;2022-08-19T03:28:53;11.60;;;10.60;;
15398;SDS011;7797;51.428;6.756;2022-08-19T03:31:24;10.53;;;9.53;;
15398;SDS011;7797;51.428;6.756;2022-08-19T03:34:11;10.63;;;8.37;;
15398;SDS011;7797;51.428;6.756;2022-08-19T03:36:41;9.60;;;8.80;;
15398;SDS011;7797;51.428;6.756;2022-08-19T03:39:09;11.73;;;9.03;;
15398;SDS011;7797;51.428;6.756;2022-08-19T03:41:37;9.30;;;8.50;;
15398;SDS011;7797;51.428;6.756;2022-08-19T03:44:11;9.97;;;8.97;;
15398;SDS011;7797;51.428;6.756;2022-08-19T03:46:44;9.80;;;8.97;;
15398;SDS011;7797;51.428;6.756;2022-08-19T03:49:11;9.63;;;8.83;;
15398;SDS011;7797;51.428;6.756;2022-08-19T03:51:40;10.50;;;9.50;;
15398;SDS011;7797;51.428;6.756;2022-08-19T03:54:08;9.53;;;8.57;;
15398;SDS011;7797;51.428;6.756;2022-08-19T03:56:37;11.27;;;8.67;;
15398;SDS011;7797;51.428;6.756;2022-08-19T03:59:06;10.40;;;9.32;;
15398;SDS011;7797;51.428;6.756;2022-08-19T04:01:37;10.93;;;9.80;;
15398;SDS011;7797;51.428;6.756;2022-08-19T04:04:03;10.70;;;9.60;;
15398;SDS011;7797;51.428;6.756;2022-08-19T04:06:34;14.23;;;12.93;;
15398;SDS011;7797;51.428;6.756;2022-08-19T04:09:06;13.37;;;11.37;;
15398;SDS011;7797;51.428;6.756;2022-08-19T04:11:37;14.97;;;13.47;;
15398;SDS011;7797;51.428;6.756;2022-08-19T04:14:20;14.80;;;13.37;;
15398;SDS011;7797;51.428;6.756;2022-08-19T04:16:49;13.77;;;12.40;;
15398;SDS011;7797;51.428;6.756;2022-08-19T04:19:16;13.97;;;12.57;;
15398;SDS011;7797;51.428;6.756;2022-08-19T04:21:45;13.17;;;11.97;;
15398;SDS011;7797;51.428;6.756;2022-08-19T04:24:16;13.70;;;12.23;;
15398;SDS011;7797;51.428;6.756;2022-08-19T04:26:44;15.07;;;12.40;;
15398;SDS011;7797;51.428;6.756;2022-08-19T04:29:12;12.87;;;11.67;;
15398;SDS011;7797;51.428;6.756;2022-08-19T04:31:41;13.93;;;12.53;;
15398;SDS011;7797;51.428;6.756;2022-08-19T04:34:10;15.87;;;14.23;;
15398;SDS011;7797;51.428;6.756;2022-08-19T04:36:38;16.73;;;15.23;;
15398;SDS011;7797;51.428;6.756;2022-08-19T04:39:08;18.13;;;16.23;;
15398;SDS011;7797;51.428;6.756;2022-08-19T04:41:37;22.37;;;16.87;;
15398;SDS011;7797;51.428;6.756;2022-08-19T04:44:22;32.80;;;18.13;;
15398;SDS011;7797;51.428;6.756;2022-08-19T04:46:49;22.27;;;15.07;;
15398;SDS011;7797;51.428;6.756;2022-08-19T04:49:20;23.63;;;15.30;;
15398;SDS011;7797;51.428;6.756;2022-08-19T04:51:52;19.60;;;16.10;;
15398;SDS011;7797;51.428;6.756;2022-08-19T04:54:21;17.80;;;14.57;;
15398;SDS011;7797;51.428;6.756;2022-08-19T04:57:04;19.13;;;15.20;;
15398;SDS011;7797;51.428;6.756;2022-08-19T04:59:33;16.80;;;15.13;;
15398;SDS011;7797;51.428;6.756;2022-08-19T05:02:00;21.53;;;15.07;;
15398;SDS011;7797;51.428;6.756;2022-08-19T05:04:27;19.23;;;15.40;;
15398;SDS011;7797;51.428;6.756;2022-08-19T05:06:58;18.47;;;16.10;;
15398;SDS011;7797;51.428;6.756;2022-08-19T05:09:28;18.03;;;16.13;;
15398;SDS011;7797;51.428;6.756;2022-08-19T05:12:15;20.83;;;16.27;;
15398;SDS011;7797;51.428;6.756;2022-08-19T05:14:42;18.03;;;12.77;;
15398;SDS011;7797;51.428;6.756;2022-08-19T05:17:09;16.70;;;12.60;;
15398;SDS011;7797;51.428;6.756;2022-08-19T05:19:53;11.83;;;10.37;;
15398;SDS011;7797;51.428;6.756;2022-08-19T05:22:40;16.33;;;11.80;;
15398;SDS011;7797;51.428;6.756;2022-08-19T05:25:08;18.47;;;15.10;;
15398;SDS011;7797;51.428;6.756;2022-08-19T05:27:39;21.17;;;18.97;;
15398;SDS011;7797;51.428;6.756;2022-08-19T05:30:07;24.47;;;21.43;;
15398;SDS011;7797;51.428;6.756;2022-08-19T05:32:34;25.83;;;23.03;;
15398;SDS011;7797;51.428;6.756;2022-08-19T05:35:01;29.17;;;25.97;;
15398;SDS011;7797;51.428;6.756;2022-08-19T05:37:28;28.60;;;24.50;;
15398;SDS011;7797;51.428;6.756;2022-08-19T05:39:55;29.17;;;25.40;;
15398;SDS011;7797;51.428;6.756;2022-08-19T05:42:22;29.77;;;26.23;;
15398;SDS011;7797;51.428;6.756;2022-08-19T05:44:49;30.77;;;27.33;;
15398;SDS011;7797;51.428;6.756;2022-08-19T05:47:17;31.97;;;28.30;;
15398;SDS011;7797;51.428;6.756;2022-08-19T05:49:46;33.07;;;28.70;;
15398;SDS011;7797;51.428;6.756;2022-08-19T05:52:13;33.03;;;29.53;;
15398;SDS011;7797;51.428;6.756;2022-08-19T05:54:44;34.93;;;30.73;;
15398;SDS011;7797;51.428;6.756;2022-08-19T05:57:17;38.77;;;29.93;;
15398;SDS011;7797;51.428;6.756;2022-08-19T05:59:44;35.73;;;30.57;;
15398;SDS011;7797;51.428;6.756;2022-08-19T06:02:23;32.47;;;27.73;;
15398;SDS011;7797;51.428;6.756;2022-08-19T06:04:51;30.57;;;27.20;;
15398;SDS011;7797;51.428;6.756;2022-08-19T06:07:17;32.40;;;28.07;;
15398;SDS011;7797;51.428;6.756;2022-08-19T06:09:45;32.03;;;27.67;;
15398;SDS011;7797;51.428;6.756;2022-08-19T06:12:26;34.57;;;30.40;;
15398;SDS011;7797;51.428;6.756;2022-08-19T06:14:54;34.17;;;30.43;;
15398;SDS011;7797;51.428;6.756;2022-08-19T06:17:27;37.87;;;31.17;;
15398;SDS011;7797;51.428;6.756;2022-08-19T06:19:57;36.07;;;31.77;;
15398;SDS011;7797;51.428;6.756;2022-08-19T06:22:25;37.47;;;32.17;;
15398;SDS011;7797;51.428;6.756;2022-08-19T06:24:52;37.10;;;33.00;;
15398;SDS011;7797;51.428;6.756;2022-08-19T06:27:20;39.77;;;33.07;;
15398;SDS011;7797;51.428;6.756;2022-08-19T06:29:47;40.33;;;33.57;;
15398;SDS011;7797;51.428;6.756;2022-08-19T06:32:15;37.53;;;33.17;;
15398;SDS011;7797;51.428;6.756;2022-08-19T06:34:42;42.83;;;35.77;;
15398;SDS011;7797;51.428;6.756;2022-08-19T06:37:10;41.63;;;35.10;;
15398;SDS011;7797;51.428;6.756;2022-08-19T06:39:38;37.03;;;33.00;;
15398;SDS011;7797;51.428;6.756;2022-08-19T06:42:06;38.80;;;33.80;;
15398;SDS011;7797;51.428;6.756;2022-08-19T06:44:37;37.20;;;33.20;;
15398;SDS011;7797;51.428;6.756;2022-08-19T06:47:10;38.47;;;33.33;;
15398;SDS011;7797;51.428;6.756;2022-08-19T06:49:40;39.63;;;35.07;;
15398;SDS011;7797;51.428;6.756;2022-08-19T06:52:08;39.83;;;35.37;;
15398;SDS011;7797;51.428;6.756;2022-08-19T06:54:39;43.83;;;37.40;;
15398;SDS011;7797;51.428;6.756;2022-08-19T06:57:22;39.73;;;35.43;;
15398;SDS011;7797;51.428;6.756;2022-08-19T06:59:49;46.40;;;38.80;;
15398;SDS011;7797;51.428;6.756;2022-08-19T07:02:16;40.57;;;34.80;;
15398;SDS011;7797;51.428;6.756;2022-08-19T07:05:03;42.53;;;34.83;;
15398;SDS011;7797;51.428;6.756;2022-08-19T07:07:32;39.97;;;33.83;;
15398;SDS011;7797;51.428;6.756;2022-08-19T07:09:58;38.33;;;33.70;;
15398;SDS011;7797;51.428;6.756;2022-08-19T07:12:29;41.20;;;34.33;;
15398;SDS011;7797;51.428;6.756;2022-08-19T07:15:06;36.03;;;31.70;;
15398;SDS011;7797;51.428;6.756;2022-08-19T07:17:35;42.33;;;34.80;;
15398;SDS011;7797;51.428;6.756;2022-08-19T07:20:05;43.13;;;34.87;;
15398;SDS011;7797;51.428;6.756;2022-08-19T07:22:35;41.13;;;33.20;;
15398;SDS011;7797;51.428;6.756;2022-08-19T07:25:04;39.23;;;33.20;;
15398;SDS011;7797;51.428;6.756;2022-08-19T07:27:32;36.67;;;31.07;;
15398;SDS011;7797;51.428;6.756;2022-08-19T07:30:00;37.63;;;30.93;;
15398;SDS011;7797;51.428;6.756;2022-08-19T07:32:27;33.77;;;29.43;;
15398;SDS011;7797;51.428;6.756;2022-08-19T07:34:54;35.53;;;29.83;;
15398;SDS011;7797;51.428;6.756;2022-08-19T07:37:23;35.07;;;29.93;;
15398;SDS011;7797;51.428;6.756;2022-08-19T07:39:58;34.37;;;28.97;;
15398;SDS011;7797;51.428;6.756;2022-08-19T07:42:25;31.30;;;27.43;;
15398;SDS011;7797;51.428;6.756;2022-08-19T07:44:52;30.70;;;26.80;;
15398;SDS011;7797;51.428;6.756;2022-08-19T07:47:19;31.53;;;28.10;;
15398;SDS011;7797;51.428;6.756;2022-08-19T07:50:07;32.77;;;26.53;;
15398;SDS011;7797;51.428;6.756;2022-08-19T07:52:35;33.40;;;26.80;;
15398;SDS011;7797;51.428;6.756;2022-08-19T07:55:05;33.10;;;25.80;;
15398;SDS011;7797;51.428;6.756;2022-08-19T07:57:54;29.07;;;25.93;;
15398;SDS011;7797;51.428;6.756;2022-08-19T08:00:21;32.70;;;25.10;;
15398;SDS011;7797;51.428;6.756;2022-08-19T08:02:50;28.93;;;23.87;;
15398;SDS011;7797;51.428;6.756;2022-08-19T08:05:20;29.87;;;23.50;;
15398;SDS011;7797;51.428;6.756;2022-08-19T08:08:09;30.40;;;24.17;;
15398;SDS011;7797;51.428;6.756;2022-08-19T08:10:55;28.90;;;22.70;;
15398;SDS011;7797;51.428;6.756;2022-08-19T08:13:23;25.90;;;21.00;;
15398;SDS011;7797;51.428;6.756;2022-08-19T08:15:51;19.70;;;17.50;;
15398;SDS011;7797;51.428;6.756;2022-08-19T08:18:21;23.13;;;19.20;;
15398;SDS011;7797;51.428;6.756;2022-08-19T08:20:55;25.27;;;19.63;;
15398;SDS011;7797;51.428;6.756;2022-08-19T08:23:23;20.87;;;18.53;;
15398;SDS011;7797;51.428;6.756;2022-08-19T08:25:54;22.40;;;17.63;;
15398;SDS011;7797;51.428;6.756;2022-08-19T08:28:23;19.27;;;16.93;;
15398;SDS011;7797;51.428;6.756;2022-08-19T08:30:54;20.37;;;17.10;;
15398;SDS011;7797;51.428;6.756;2022-08-19T08:33:23;25.27;;;18.00;;
15398;SDS011;7797;51.428;6.756;2022-08-19T08:36:09;24.57;;;19.77;;
15398;SDS011;7797;51.428;6.756;2022-08-19T08:38:37;21.17;;;16.97;;
15398;SDS011;7797;51.428;6.756;2022-08-19T08:41:09;22.57;;;18.87;;
15398;SDS011;7797;51.428;6.756;2022-08-19T08:43:59;21.53;;;18.33;;
15398;SDS011;7797;51.428;6.756;2022-08-19T08:46:34;22.23;;;18.00;;
15398;SDS011;7797;51.428;6.756;2022-08-19T08:51:45;22.40;;;18.33;;
15398;SDS011;7797;51.428;6.756;2022-08-19T08:54:27;21.60;;;16.83;;
15398;SDS011;7797;51.428;6.756;2022-08-19T08:57:02;19.20;;;17.20;;
15398;SDS011;7797;51.428;6.756;2022-08-19T08:59:31;18.85;;;15.85;;
15398;SDS011;7797;51.428;6.756;2022-08-19T09:02:02;16.60;;;13.70;;
15398;SDS011;7797;51.428;6.756;2022-08-19T09:04:28;14.55;;;12.98;;
15398;SDS011;7797;51.428;6.756;2022-08-19T09:09:37;19.25;;;15.00;;
15398;SDS011;7797;51.428;6.756;2022-08-19T09:15:00;21.65;;;18.17;;
15398;SDS011;7797;51.428;6.756;2022-08-19T09:17:30;18.90;;;16.60;;
15398;SDS011;7797;51.428;6.756;2022-08-19T09:22:58;26.33;;;20.42;;
15398;SDS011;7797;51.428;6.756;2022-08-19T09:25:24;24.23;;;20.25;;
15398;SDS011;7797;51.428;6.756;2022-08-19T09:27:55;26.25;;;20.05;;
15398;SDS011;7797;51.428;6.756;2022-08-19T09:30:33;22.35;;;18.10;;
15398;SDS011;7797;51.428;6.756;2022-08-19T09:33:01;21.05;;;18.35;;
15398;SDS011;7797;51.428;6.756;2022-08-19T09:35:28;19.65;;;16.75;;
15398;SDS011;7797;51.428;6.756;2022-08-19T09:37:56;23.30;;;17.75;;
15398;SDS011;7797;51.428;6.756;2022-08-19T09:40:25;21.98;;;18.15;;
15398;SDS011;7797;51.428;6.756;2022-08-19T09:42:59;20.25;;;17.52;;
15398;SDS011;7797;51.428;6.756;2022-08-19T09:45:38;22.27;;;17.67;;
15398;SDS011;7797;51.428;6.756;2022-08-19T09:48:05;23.02;;;18.65;;
15398;SDS011;7797;51.428;6.756;2022-08-19T09:50:34;24.15;;;19.65;;
15398;SDS011;7797;51.428;6.756;2022-08-19T09:53:17;24.48;;;19.90;;
15398;SDS011;7797;51.428;6.756;2022-08-19T09:55:44;25.58;;;21.83;;
15398;SDS011;7797;51.428;6.756;2022-08-19T09:58:11;25.25;;;20.42;;
15398;SDS011;7797;51.428;6.756;2022-08-19T10:00:38;24.90;;;21.05;;
15398;SDS011;7797;51.428;6.756;2022-08-19T10:03:05;23.88;;;20.08;;
15398;SDS011;7797;51.428;6.756;2022-08-19T10:05:33;22.50;;;19.98;;
15398;SDS011;7797;51.428;6.756;2022-08-19T10:08:38;21.73;;;19.20;;
15398;SDS011;7797;51.428;6.756;2022-08-19T10:11:15;21.38;;;19.08;;
15398;SDS011;7797;51.428;6.756;2022-08-19T10:14:03;21.92;;;18.20;;
15398;SDS011;7797;51.428;6.756;2022-08-19T10:16:32;21.45;;;18.58;;
15398;SDS011;7797;51.428;6.756;2022-08-19T10:19:04;21.13;;;18.75;;
15398;SDS011;7797;51.428;6.756;2022-08-19T10:21:35;21.00;;;18.08;;
15398;SDS011;7797;51.428;6.756;2022-08-19T10:24:05;20.42;;;18.17;;
15398;SDS011;7797;51.428;6.756;2022-08-19T10:26:35;20.77;;;18.58;;
15398;SDS011;7797;51.428;6.756;2022-08-19T10:29:03;23.48;;;18.05;;
15398;SDS011;7797;51.428;6.756;2022-08-19T10:31:34;19.38;;;16.70;;
15398;SDS011;7797;51.428;6.756;2022-08-19T10:34:21;19.45;;;17.38;;
15398;SDS011;7797;51.428;6.756;2022-08-19T10:36:53;21.92;;;17.63;;
15398;SDS011;7797;51.428;6.756;2022-08-19T10:39:26;17.38;;;15.43;;
15398;SDS011;7797;51.428;6.756;2022-08-19T10:41:57;17.45;;;15.60;;
15398;SDS011;7797;51.428;6.756;2022-08-19T10:44:24;17.25;;;15.43;;
15398;SDS011;7797;51.428;6.756;2022-08-19T10:46:57;16.85;;;15.05;;
15398;SDS011;7797;51.428;6.756;2022-08-19T10:49:25;17.48;;;15.30;;
15398;SDS011;7797;51.428;6.756;2022-08-19T10:51:53;16.80;;;13.77;;
15398;SDS011;7797;51.428;6.756;2022-08-19T10:54:45;12.98;;;11.68;;
15398;SDS011;7797;51.428;6.756;2022-08-19T10:57:34;16.95;;;13.52;;
15398;SDS011;7797;51.428;6.756;2022-08-19T11:00:21;16.88;;;13.63;;
15398;SDS011;7797;51.428;6.756;2022-08-19T11:02:49;17.25;;;12.10;;
15398;SDS011;7797;51.428;6.756;2022-08-19T11:05:17;14.20;;;12.20;;
15398;SDS011;7797;51.428;6.756;2022-08-19T11:07:44;12.65;;;11.35;;
15398;SDS011;7797;51.428;6.756;2022-08-19T11:10:12;12.43;;;11.00;;
15398;SDS011;7797;51.428;6.756;2022-08-19T11:12:46;11.85;;;10.65;;
15398;SDS011;7797;51.428;6.756;2022-08-19T11:15:13;11.07;;;9.88;;
15398;SDS011;7797;51.428;6.756;2022-08-19T11:17:40;13.07;;;10.00;;
15398;SDS011;7797;51.428;6.756;2022-08-19T11:20:07;13.63;;;9.75;;
15398;SDS011;7797;51.428;6.756;2022-08-19T11:22:35;10.90;;;9.80;;
15398;SDS011;7797;51.428;6.756;2022-08-19T11:25:09;11.00;;;9.23;;
15398;SDS011;7797;51.428;6.756;2022-08-19T11:27:38;10.45;;;9.45;;
15398;SDS011;7797;51.428;6.756;2022-08-19T11:30:09;10.73;;;8.85;;
15398;SDS011;7797;51.428;6.756;2022-08-19T11:32:38;11.65;;;9.90;;
15398;SDS011;7797;51.428;6.756;2022-08-19T11:35:13;10.20;;;9.23;;
15398;SDS011;7797;51.428;6.756;2022-08-19T11:37:40;11.10;;;9.50;;
15398;SDS011;7797;51.428;6.756;2022-08-19T11:40:07;9.45;;;8.55;;
15398;SDS011;7797;51.428;6.756;2022-08-19T11:42:35;9.05;;;8.20;;
15398;SDS011;7797;51.428;6.756;2022-08-19T11:45:20;8.88;;;7.97;;
15398;SDS011;7797;51.428;6.756;2022-08-19T11:47:47;9.55;;;8.55;;
15398;SDS011;7797;51.428;6.756;2022-08-19T11:50:15;10.25;;;8.30;;
15398;SDS011;7797;51.428;6.756;2022-08-19T11:52:42;8.73;;;7.93;;
15398;SDS011;7797;51.428;6.756;2022-08-19T11:55:11;8.23;;;7.53;;
15398;SDS011;7797;51.428;6.756;2022-08-19T11:57:39;9.35;;;7.78;;
15398;SDS011;7797;51.428;6.756;2022-08-19T12:00:07;7.18;;;6.47;;
15398;SDS011;7797;51.428;6.756;2022-08-19T12:02:35;11.40;;;7.65;;
15398;SDS011;7797;51.428;6.756;2022-08-19T12:05:02;7.57;;;6.88;;
15398;SDS011;7797;51.428;6.756;2022-08-19T12:07:34;6.63;;;6.05;;
15398;SDS011;7797;51.428;6.756;2022-08-19T12:10:00;6.80;;;6.20;;
15398;SDS011;7797;51.428;6.756;2022-08-19T12:12:28;8.05;;;6.07;;
15398;SDS011;7797;51.428;6.756;2022-08-19T12:14:55;8.00;;;7.13;;
15398;SDS011;7797;51.428;6.756;2022-08-19T12:17:25;7.40;;;6.70;;
15398;SDS011;7797;51.428;6.756;2022-08-19T12:19:52;7.18;;;6.22;;
15398;SDS011;7797;51.428;6.756;2022-08-19T12:22:19;7.50;;;6.82;;
15398;SDS011;7797;51.428;6.756;2022-08-19T12:24:47;6.90;;;6.40;;
15398;SDS011;7797;51.428;6.756;2022-08-19T12:27:16;6.90;;;6.20;;
15398;SDS011;7797;51.428;6.756;2022-08-19T12:30:04;7.75;;;6.00;;
15398;SDS011;7797;51.428;6.756;2022-08-19T12:32:32;8.00;;;7.15;;
15398;SDS011;7797;51.428;6.756;2022-08-19T12:35:00;7.78;;;6.35;;
15398;SDS011;7797;51.428;6.756;2022-08-19T12:37:27;7.75;;;6.95;;
15398;SDS011;7797;51.428;6.756;2022-08-19T12:39:54;7.38;;;6.63;;
15398;SDS011;7797;51.428;6.756;2022-08-19T12:42:20;9.13;;;6.55;;
15398;SDS011;7797;51.428;6.756;2022-08-19T12:44:49;10.98;;;6.63;;
15398;SDS011;7797;51.428;6.756;2022-08-19T12:47:18;11.45;;;5.93;;
15398;SDS011;7797;51.428;6.756;2022-08-19T12:49:44;7.68;;;5.70;;
15398;SDS011;7797;51.428;6.756;2022-08-19T12:52:20;6.13;;;5.60;;
15398;SDS011;7797;51.428;6.756;2022-08-19T12:54:48;6.40;;;5.88;;
15398;SDS011;7797;51.428;6.756;2022-08-19T12:57:20;5.10;;;4.70;;
15398;SDS011;7797;51.428;6.756;2022-08-19T12:59:57;5.30;;;4.80;;
15398;SDS011;7797;51.428;6.756;2022-08-19T13:02:24;4.35;;;4.05;;
15398;SDS011;7797;51.428;6.756;2022-08-19T13:04:50;4.50;;;4.10;;
15398;SDS011;7797;51.428;6.756;2022-08-19T13:07:17;5.10;;;4.72;;
15398;SDS011;7797;51.428;6.756;2022-08-19T13:09:44;5.50;;;5.00;;
15398;SDS011;7797;51.428;6.756;2022-08-19T13:12:10;6.22;;;4.93;;
15398;SDS011;7797;51.428;6.756;2022-08-19T13:14:39;5.57;;;5.05;;
15398;SDS011;7797;51.428;6.756;2022-08-19T13:17:06;5.72;;;5.22;;
15398;SDS011;7797;51.428;6.756;2022-08-19T13:19:35;6.38;;;4.45;;
15398;SDS011;7797;51.428;6.756;2022-08-19T13:22:02;5.50;;;4.55;;
15398;SDS011;7797;51.428;6.756;2022-08-19T13:24:38;5.28;;;4.47;;
15398;SDS011;7797;51.428;6.756;2022-08-19T13:27:10;5.40;;;4.82;;
15398;SDS011;7797;51.428;6.756;2022-08-19T13:29:37;5.38;;;4.70;;
15398;SDS011;7797;51.428;6.756;2022-08-19T13:32:24;4.50;;;4.10;;
15398;SDS011;7797;51.428;6.756;2022-08-19T13:35:10;4.53;;;4.22;;
15398;SDS011;7797;51.428;6.756;2022-08-19T13:37:42;4.60;;;4.20;;
15398;SDS011;7797;51.428;6.756;2022-08-19T13:42:42;6.35;;;4.80;;
15398;SDS011;7797;51.428;6.756;2022-08-19T13:45:10;5.53;;;5.00;;
15398;SDS011;7797;51.428;6.756;2022-08-19T13:47:38;6.10;;;5.50;;
15398;SDS011;7797;51.428;6.756;2022-08-19T13:50:11;5.97;;;5.45;;
15398;SDS011;7797;51.428;6.756;2022-08-19T13:52:39;5.70;;;5.30;;
15398;SDS011;7797;51.428;6.756;2022-08-19T13:55:07;6.10;;;5.50;;
15398;SDS011;7797;51.428;6.756;2022-08-19T13:57:34;6.60;;;5.90;;
15398;SDS011;7797;51.428;6.756;2022-08-19T14:00:06;6.63;;;5.82;;
15398;SDS011;7797;51.428;6.756;2022-08-19T14:02:38;6.30;;;5.70;;
15398;SDS011;7797;51.428;6.756;2022-08-19T14:05:08;9.75;;;5.95;;
15398;SDS011;7797;51.428;6.756;2022-08-19T14:07:35;9.02;;;5.55;;
15398;SDS011;7797;51.428;6.756;2022-08-19T14:10:03;6.03;;;5.53;;
15398;SDS011;7797;51.428;6.756;2022-08-19T14:12:31;5.88;;;5.40;;
15398;SDS011;7797;51.428;6.756;2022-08-19T14:14:58;6.85;;;6.22;;
15398;SDS011;7797;51.428;6.756;2022-08-19T14:17:25;7.18;;;6.47;;
15398;SDS011;7797;51.428;6.756;2022-08-19T14:19:56;8.30;;;6.93;;
15398;SDS011;7797;51.428;6.756;2022-08-19T14:22:28;7.90;;;7.00;;
15398;SDS011;7797;51.428;6.756;2022-08-19T14:24:55;8.00;;;6.03;;
15398;SDS011;7797;51.428;6.756;2022-08-19T14:27:23;6.25;;;5.60;;
15398;SDS011;7797;51.428;6.756;2022-08-19T14:29:51;5.25;;;4.82;;
15398;SDS011;7797;51.428;6.756;2022-08-19T14:32:18;6.70;;;5.22;;
15398;SDS011;7797;51.428;6.756;2022-08-19T14:34:45;5.70;;;5.18;;
15398;SDS011;7797;51.428;6.756;2022-08-19T14:37:13;6.15;;;5.10;;
15398;SDS011;7797;51.428;6.756;2022-08-19T14:39:41;5.45;;;4.28;;
15398;SDS011;7797;51.428;6.756;2022-08-19T14:42:08;4.93;;;4.43;;
15398;SDS011;7797;51.428;6.756;2022-08-19T14:44:37;7.97;;;5.28;;
15398;SDS011;7797;51.428;6.756;2022-08-19T14:47:04;7.50;;;4.80;;
15398;SDS011;7797;51.428;6.756;2022-08-19T14:49:35;4.50;;;4.10;;
15398;SDS011;7797;51.428;6.756;2022-08-19T14:52:11;4.75;;;4.35;;
15398;SDS011;7797;51.428;6.756;2022-08-19T14:54:38;4.93;;;4.53;;
15398;SDS011;7797;51.428;6.756;2022-08-19T14:57:18;4.47;;;4.07;;
15398;SDS011;7797;51.428;6.756;2022-08-19T14:59:46;4.10;;;3.72;;
15398;SDS011;7797;51.428;6.756;2022-08-19T15:02:16;4.35;;;3.95;;
15398;SDS011;7797;51.428;6.756;2022-08-19T15:05:00;4.38;;;3.97;;
15398;SDS011;7797;51.428;6.756;2022-08-19T15:07:27;5.10;;;4.10;;
15398;SDS011;7797;51.428;6.756;2022-08-19T15:09:55;6.05;;;4.22;;
15398;SDS011;7797;51.428;6.756;2022-08-19T15:12:23;4.85;;;4.40;;
15398;SDS011;7797;51.428;6.756;2022-08-19T15:14:50;5.63;;;4.57;;
15398;SDS011;7797;51.428;6.756;2022-08-19T15:17:21;5.35;;;4.68;;
15398;SDS011;7797;51.428;6.756;2022-08-19T15:20:09;5.28;;;4.85;;
15398;SDS011;7797;51.428;6.756;2022-08-19T15:22:37;5.70;;;5.15;;